KEAN/EAN METAR and TAF weather

Enter ICAO airport designator
Station Type Date Time Source
KEAN METAR 2018/01/23 01:35 UTC NOAA

KEAN 230135Z AUTO 21010G21KT 10SM CLR M02/M10 A3007 RMK AO2 T10201100


Station Type Date Time Source
KEAN Decoded METAR 2018/01/23 01:35 UTC NOAA

Station name not available
Jan 22, 2018 - 08:35 PM EST / 2018.01.23 0135 UTC
Wind: from the SSW (210 degrees) at 12 MPH (10 KT) gusting to 24 MPH (21 KT):0
Visibility: 10 mile(s):0
Sky conditions: clear
Temperature: 28.4 F (-2.0 C)
Windchill: 17 F (-8 C):1
Dew Point: 14.0 F (-10.0 C)
Relative Humidity: 54%
Pressure (altimeter): 30.07 in. Hg (1018 hPa)
ob: KEAN 230135Z AUTO 21010G21KT 10SM CLR M02/M10 A3007 RMK AO2 T10201100
cycle: 1

Station Type Date Time Source
KEAN TAF UTC NOAA

Error!


Example: see airport list